TimeMST,TemperatureF,Dew PointF,Humidity,Sea Level PressureIn,VisibilityMPH,Wind Direction,Wind SpeedMPH,Gust SpeedMPH,PrecipitationIn,Events,Conditions,WindDirDegrees,DateUTC
12:53 AM,15.1,9.0,77,29.81,10.0,West,5.8,-,N/A,,Clear,260,2014-03-06 07:53:00
1:53 AM,15.1,9.0,77,29.82,10.0,WNW,5.8,-,N/A,,Mostly Cloudy,300,2014-03-06 08:53:00
2:53 AM,15.1,10.0,80,29.80,10.0,Calm,Calm,-,N/A,,Overcast,0,2014-03-06 09:53:00
3:31 AM,16.0,10.9,81,29.68,8.0,Calm,Calm,-,0.01,Rain,Light Freezing Rain,0,2014-03-06 10:31:00
3:53 AM,17.1,12.0,81,29.78,10.0,SSE,3.5,-,0.01,Rain,Light Freezing Rain,150,2014-03-06 10:53:00
4:05 AM,16.0,12.0,84,29.67,10.0,Calm,Calm,-,0.00,,Overcast,0,2014-03-06 11:05:00
4:33 AM,17.1,12.9,84,29.65,9.0,East,6.9,-,0.01,Rain,Light Freezing Rain,80,2014-03-06 11:33:00
4:53 AM,18.0,14.0,84,29.75,8.0,NNE,8.1,-,0.01,Rain,Light Freezing Rain,30,2014-03-06 11:53:00
5:19 AM,19.9,16.0,85,29.63,5.0,NNE,10.4,-,0.01,Rain,Light Freezing Rain,30,2014-03-06 12:19:00
5:27 AM,19.9,16.0,85,29.63,6.0,NNE,10.4,-,0.02,Rain,Light Freezing Rain,20,2014-03-06 12:27:00
5:53 AM,19.9,16.0,85,29.76,6.0,NNW,11.5,-,0.02,Rain,Light Freezing Rain,340,2014-03-06 12:53:00
6:21 AM,16.0,12.9,88,29.69,3.0,NW,15.0,-,0.01,,Overcast,320,2014-03-06 13:21:00
6:53 AM,12.9,9.0,84,29.83,3.0,NW,17.3,26.5,0.03,Snow,Blowing Snow,310,2014-03-06 13:53:00
7:53 AM,12.0,7.0,80,29.83,8.0,West,5.8,-,0.01,,Overcast,270,2014-03-06 14:53:00
8:11 AM,12.0,8.1,84,29.71,10.0,WNW,11.5,-,N/A,,Overcast,290,2014-03-06 15:11:00
8:53 AM,12.0,7.0,80,29.86,10.0,West,10.4,-,N/A,,Overcast,280,2014-03-06 15:53:00
9:53 AM,12.0,7.0,80,29.88,7.0,NW,16.1,-,N/A,,Overcast,310,2014-03-06 16:53:00
10:18 AM,12.9,8.1,81,29.76,2.0,NNW,11.5,-,0.00,Snow,Light Snow,330,2014-03-06 17:18:00
10:30 AM,12.9,8.1,81,29.76,2.5,NW,11.5,-,0.00,Snow,Light Snow,320,2014-03-06 17:30:00
10:38 AM,14.0,8.1,77,29.77,3.0,NW,11.5,-,0.00,Snow,Light Snow,310,2014-03-06 17:38:00
10:53 AM,14.0,9.0,80,29.89,4.0,NW,10.4,-,0.00,Snow,Light Snow,320,2014-03-06 17:53:00
11:53 AM,14.0,9.0,80,29.91,3.0,NW,10.4,-,0.00,Snow,Light Snow,320,2014-03-06 18:53:00
12:53 PM,15.1,8.1,74,29.93,8.0,NW,15.0,-,0.00,Snow,Light Snow,320,2014-03-06 19:53:00
1:53 PM,14.0,7.0,74,29.95,10.0,NW,12.7,-,0.00,,Overcast,320,2014-03-06 20:53:00
2:53 PM,14.0,6.1,71,29.96,10.0,NW,11.5,-,N/A,,Overcast,320,2014-03-06 21:53:00
3:53 PM,14.0,6.1,71,29.99,10.0,NW,9.2,-,N/A,,Overcast,310,2014-03-06 22:53:00
4:53 PM,12.0,3.9,70,30.03,10.0,NW,10.4,-,N/A,,Overcast,320,2014-03-06 23:53:00
5:53 PM,10.9,3.0,70,30.05,10.0,NW,10.4,-,N/A,,Overcast,320,2014-03-07 00:53:00
6:53 PM,10.9,3.0,70,30.10,10.0,NNW,8.1,-,N/A,,Overcast,330,2014-03-07 01:53:00
7:53 PM,10.9,1.9,67,30.13,10.0,NW,6.9,-,N/A,,Overcast,320,2014-03-07 02:53:00
8:53 PM,10.9,1.9,67,30.16,10.0,NW,8.1,-,N/A,,Overcast,320,2014-03-07 03:53:00
9:53 PM,10.9,1.9,67,30.18,10.0,NW,4.6,-,N/A,,Overcast,320,2014-03-07 04:53:00
10:53 PM,10.0,1.0,67,30.20,10.0,NNE,5.8,-,N/A,,Overcast,30,2014-03-07 05:53:00
11:53 PM,10.0,1.0,67,30.20,10.0,NE,5.8,-,N/A,,Overcast,50,2014-03-07 06:53:00